createdAt,value
2018-12-26T00:01:54.726Z,5.83
2018-12-26T00:04:35.694Z,17.63
2018-12-26T00:07:16.446Z,3.03
2018-12-26T00:09:57.330Z,8.00
2018-12-26T00:12:38.682Z,9.33
2018-12-26T00:15:19.622Z,5.77
2018-12-26T00:18:00.815Z,5.07
2018-12-26T00:20:41.340Z,6.77
2018-12-26T00:23:21.819Z,8.20
2018-12-26T00:26:03.100Z,6.77
2018-12-26T00:28:44.393Z,4.73
2018-12-26T00:31:25.080Z,3.50
2018-12-26T00:34:05.692Z,7.50
2018-12-26T00:36:47.066Z,7.87
2018-12-26T00:39:28.251Z,7.63
2018-12-26T00:42:09.199Z,8.17
2018-12-26T00:44:49.991Z,6.53
2018-12-26T00:47:30.903Z,6.90
2018-12-26T00:50:11.679Z,5.23
2018-12-26T00:52:52.414Z,9.13
2018-12-26T00:55:33.162Z,14.70
2018-12-26T00:58:14.373Z,6.13
2018-12-26T01:00:55.233Z,7.43
2018-12-26T01:03:35.976Z,11.50
2018-12-26T01:06:16.951Z,8.10
2018-12-26T01:08:57.885Z,8.43
2018-12-26T01:11:38.384Z,9.40
2018-12-26T01:14:19.119Z,8.30
2018-12-26T01:17:00.219Z,5.43
2018-12-26T01:19:40.773Z,6.80
2018-12-26T01:22:21.461Z,5.77
2018-12-26T01:25:02.145Z,10.47
2018-12-26T01:27:42.631Z,5.20
2018-12-26T01:30:23.904Z,11.47
2018-12-26T01:33:04.821Z,6.23
2018-12-26T01:35:45.581Z,9.10
2018-12-26T01:38:26.499Z,4.00
2018-12-26T01:41:07.365Z,3.93
2018-12-26T01:43:48.861Z,7.40
2018-12-26T01:46:29.891Z,7.50
2018-12-26T01:49:11.119Z,4.23
2018-12-26T01:51:40.179Z,6.30
2018-12-26T01:54:28.395Z,8.33
2018-12-26T01:57:16.589Z,4.20
2018-12-26T02:00:05.090Z,8.93
2018-12-26T02:02:53.319Z,8.53
2018-12-26T02:05:41.398Z,6.10
2018-12-26T02:08:29.573Z,8.30
2018-12-26T02:11:17.820Z,5.63
2018-12-26T02:14:06.120Z,5.10
2018-12-26T02:16:54.400Z,7.50
2018-12-26T02:19:42.546Z,8.73
2018-12-26T02:22:30.736Z,7.47
2018-12-26T02:25:12.049Z,12.13
2018-12-26T02:27:52.912Z,5.70
2018-12-26T02:33:16.799Z,8.87
2018-12-26T02:35:57.878Z,5.90
2018-12-26T02:38:38.637Z,9.37
2018-12-26T02:41:19.304Z,9.13
2018-12-26T02:44:00.236Z,7.00
2018-12-26T02:46:41.486Z,7.20
2018-12-26T02:49:22.186Z,6.90
2018-12-26T02:52:03.016Z,13.27
2018-12-26T02:54:44.004Z,9.70
2018-12-26T02:57:24.918Z,7.77
2018-12-26T03:00:05.836Z,7.40
2018-12-26T03:02:47.217Z,10.43
2018-12-26T03:05:27.880Z,10.47
2018-12-26T03:10:58.918Z,11.30
2018-12-26T03:13:27.994Z,12.03
2018-12-26T03:16:16.121Z,10.80
2018-12-26T03:19:04.237Z,13.40
2018-12-26T03:21:52.551Z,14.47
2018-12-26T03:24:33.273Z,12.90
2018-12-26T03:27:14.546Z,15.60
2018-12-26T03:29:55.223Z,15.67
2018-12-26T03:32:36.138Z,18.53
2018-12-26T03:35:05.568Z,16.40
2018-12-26T03:37:34.754Z,20.20
2018-12-26T03:40:23.052Z,19.77
2018-12-26T03:43:11.464Z,16.80
2018-12-26T03:45:59.894Z,16.20
2018-12-26T03:51:23.947Z,15.73
2018-12-26T03:53:53.492Z,16.23
2018-12-26T03:56:22.522Z,16.70
2018-12-26T03:59:10.670Z,17.77
2018-12-26T04:01:58.832Z,23.37
2018-12-26T04:04:47.097Z,18.50
2018-12-26T04:07:35.302Z,19.07
2018-12-26T04:10:23.699Z,16.13
2018-12-26T04:13:11.979Z,16.80
2018-12-26T04:15:40.821Z,18.93
2018-12-26T04:18:29.162Z,18.73
2018-12-26T04:21:17.495Z,16.53
2018-12-26T04:24:05.821Z,19.17
2018-12-26T04:26:46.966Z,19.73
2018-12-26T04:29:27.841Z,16.73
2018-12-26T04:32:08.882Z,19.00
2018-12-26T04:34:49.599Z,16.20
2018-12-26T04:40:12.237Z,17.40
2018-12-26T04:42:53.547Z,17.17
2018-12-26T04:45:34.933Z,19.57
2018-12-26T04:48:15.327Z,15.70
2018-12-26T04:50:56.209Z,19.10
2018-12-26T05:02:20.028Z,21.20
2018-12-26T05:05:00.681Z,24.00
2018-12-26T05:07:39.941Z,24.50
2018-12-26T05:10:28.233Z,24.77
2018-12-26T05:13:16.512Z,24.13
2018-12-26T05:16:04.766Z,21.90
2018-12-26T05:18:52.907Z,26.37
2018-12-26T05:21:41.003Z,24.33
2018-12-26T05:24:29.268Z,31.03
2018-12-26T05:27:17.506Z,27.63
2018-12-26T05:30:06.079Z,25.23
2018-12-26T05:32:54.281Z,25.47
2018-12-26T05:35:42.595Z,33.10
2018-12-26T05:38:30.753Z,25.43
2018-12-26T05:41:18.899Z,25.70
2018-12-26T05:44:07.051Z,31.03
2018-12-26T05:46:55.217Z,28.87
2018-12-26T05:49:43.325Z,26.97
2018-12-26T05:52:31.525Z,32.20
2018-12-26T05:55:00.461Z,29.87
2018-12-26T05:57:48.606Z,27.57
2018-12-26T06:00:36.939Z,25.03
2018-12-26T06:03:25.258Z,27.50
2018-12-26T06:06:13.548Z,31.13
2018-12-26T06:09:01.769Z,26.50
2018-12-26T06:11:49.919Z,25.67
2018-12-26T06:14:38.109Z,30.30
2018-12-26T06:17:26.257Z,26.23
2018-12-26T06:20:14.597Z,26.17
2018-12-26T06:23:02.847Z,28.77
2018-12-26T06:25:51.049Z,35.60
2018-12-26T06:28:20.094Z,34.70
2018-12-26T06:31:08.357Z,33.70
2018-12-26T06:33:56.525Z,36.23
2018-12-26T06:36:44.821Z,30.20
2018-12-26T06:39:32.983Z,29.67
2018-12-26T06:42:21.134Z,32.93
2018-12-26T06:45:09.379Z,30.23
2018-12-26T06:47:57.559Z,36.47
2018-12-26T06:50:38.431Z,32.43
2018-12-26T06:53:19.372Z,29.20
2018-12-26T06:56:00.799Z,37.97
2018-12-26T06:58:41.443Z,35.57
2018-12-26T07:01:22.261Z,34.80
2018-12-26T07:04:02.785Z,31.17
2018-12-26T07:06:43.994Z,33.90
2018-12-26T07:09:24.501Z,39.90
2018-12-26T07:12:05.620Z,39.40
2018-12-26T07:14:46.610Z,45.73
2018-12-26T07:17:27.630Z,34.87
2018-12-26T07:20:09.032Z,39.70
2018-12-26T07:22:50.287Z,39.27
2018-12-26T07:25:31.472Z,35.73
2018-12-26T07:28:12.505Z,37.97
2018-12-26T07:30:53.136Z,31.97
2018-12-26T07:33:34.029Z,33.50
2018-12-26T07:38:57.647Z,32.50
2018-12-26T07:41:38.279Z,35.27
2018-12-26T07:44:23.184Z,35.40
2018-12-26T07:47:04.556Z,32.70
2018-12-26T07:49:46.124Z,33.40
2018-12-26T07:52:27.394Z,32.30
2018-12-26T07:55:08.041Z,31.40
2018-12-26T07:57:49.414Z,31.70
2018-12-26T08:00:30.192Z,32.87
2018-12-26T08:03:10.697Z,31.27
2018-12-26T08:05:52.027Z,38.93
2018-12-26T08:08:33.017Z,32.90
2018-12-26T08:11:14.122Z,37.03
2018-12-26T08:13:43.252Z,34.10
2018-12-26T08:16:12.718Z,38.50
2018-12-26T08:21:51.643Z,41.17
2018-12-26T08:24:39.861Z,43.00
2018-12-26T08:27:28.002Z,38.33
2018-12-26T08:30:16.241Z,42.70
2018-12-26T08:33:04.311Z,40.63
2018-12-26T08:35:52.617Z,35.93
2018-12-26T08:38:40.773Z,36.23
2018-12-26T08:41:29.043Z,37.37
2018-12-26T08:44:17.527Z,46.13
2018-12-26T08:47:05.955Z,42.40
2018-12-26T08:49:47.388Z,45.83
2018-12-26T08:52:27.977Z,39.33
2018-12-26T08:55:08.476Z,34.93
2018-12-26T08:57:49.331Z,35.93
2018-12-26T09:00:30.921Z,32.13
2018-12-26T09:03:12.326Z,35.27
2018-12-26T09:05:53.111Z,34.20
2018-12-26T09:08:33.795Z,31.20
2018-12-26T09:11:14.611Z,35.03
2018-12-26T09:13:55.651Z,28.83
2018-12-26T09:16:36.808Z,28.53
2018-12-26T09:19:18.193Z,27.50
2018-12-26T09:21:59.363Z,32.17
2018-12-26T09:24:40.692Z,31.20
2018-12-26T09:27:21.636Z,29.13
2018-12-26T09:30:03.019Z,30.83
2018-12-26T09:32:43.881Z,22.77
2018-12-26T09:35:24.987Z,20.80
2018-12-26T09:38:05.991Z,27.70
2018-12-26T09:40:46.747Z,23.13
2018-12-26T09:43:28.152Z,23.27
2018-12-26T09:46:09.052Z,24.40
2018-12-26T09:48:41.326Z,24.00
2018-12-26T09:51:10.553Z,24.53
2018-12-26T09:53:58.692Z,22.33
2018-12-26T09:56:46.983Z,25.37
2018-12-26T09:59:16.164Z,22.23
2018-12-26T10:02:04.554Z,27.33
2018-12-26T10:04:52.896Z,20.87
2018-12-26T10:07:41.144Z,22.07
2018-12-26T10:10:29.386Z,22.20
2018-12-26T10:13:17.526Z,26.00
2018-12-26T10:16:05.755Z,21.70
2018-12-26T10:18:53.878Z,30.83
2018-12-26T10:21:42.076Z,28.83
2018-12-26T10:24:30.158Z,24.70
2018-12-26T10:27:18.478Z,33.53
2018-12-26T10:29:47.677Z,40.07
2018-12-26T10:32:35.745Z,30.23
2018-12-26T10:35:23.962Z,33.10
2018-12-26T10:38:11.982Z,33.20
2018-12-26T10:41:00.105Z,27.93
2018-12-26T10:43:48.219Z,35.97
2018-12-26T10:46:36.558Z,31.77
2018-12-26T10:49:24.651Z,33.27
2018-12-26T10:52:05.427Z,30.27
2018-12-26T10:54:46.528Z,34.77
2018-12-26T10:57:27.557Z,35.53
2018-12-26T11:00:08.493Z,34.97
2018-12-26T11:02:49.138Z,30.37
2018-12-26T11:05:29.961Z,36.73
2018-12-26T11:08:10.619Z,37.03
2018-12-26T11:10:51.755Z,38.20
2018-12-26T11:13:33.342Z,34.07
2018-12-26T11:16:14.644Z,32.03
2018-12-26T11:18:55.743Z,33.60
2018-12-26T11:21:37.087Z,32.77
2018-12-26T11:24:05.933Z,32.47
2018-12-26T11:26:54.057Z,31.97
2018-12-26T11:29:42.190Z,32.07
2018-12-26T11:32:30.275Z,32.50
2018-12-26T11:35:18.391Z,32.00
2018-12-26T11:38:06.566Z,27.00
2018-12-26T11:40:54.642Z,29.73
2018-12-26T11:43:42.778Z,26.43
2018-12-26T11:46:30.896Z,30.13
2018-12-26T11:49:18.961Z,29.00
2018-12-26T11:52:07.269Z,26.47
2018-12-26T11:54:56.774Z,29.37
2018-12-26T11:57:44.883Z,34.67
2018-12-26T12:00:32.912Z,31.80
2018-12-26T12:03:21.062Z,31.33
2018-12-26T12:06:09.152Z,30.70
2018-12-26T12:08:57.223Z,30.43
2018-12-26T12:11:45.358Z,29.27
2018-12-26T12:14:33.498Z,34.63
2018-12-26T12:17:21.614Z,35.63
2018-12-26T12:20:10.338Z,33.50
2018-12-26T12:22:58.512Z,38.87
2018-12-26T12:25:46.744Z,37.10
2018-12-26T12:28:34.834Z,45.40
2018-12-26T12:31:15.850Z,45.60
2018-12-26T12:33:56.277Z,42.10
2018-12-26T12:36:37.087Z,42.80
2018-12-26T12:39:17.852Z,44.07
2018-12-26T12:41:58.458Z,52.20
2018-12-26T12:44:39.172Z,55.60
2018-12-26T12:47:19.881Z,58.93
2018-12-26T12:50:00.883Z,47.00
2018-12-26T12:55:23.676Z,50.40
2018-12-26T12:58:02.959Z,52.10
2018-12-26T13:00:51.138Z,56.70
2018-12-26T13:03:46.574Z,65.37
2018-12-26T13:06:29.266Z,56.83
2018-12-26T13:08:58.182Z,62.90
2018-12-26T13:11:27.150Z,54.03
2018-12-26T13:14:15.189Z,63.83
2018-12-26T13:17:22.797Z,65.27
2018-12-26T13:20:10.878Z,64.90
2018-12-26T13:22:59.102Z,78.60
2018-12-26T13:25:47.187Z,64.17
2018-12-26T13:28:35.262Z,71.00
2018-12-26T13:31:23.338Z,63.47
2018-12-26T13:34:11.472Z,71.70
2018-12-26T13:36:59.540Z,63.93
2018-12-26T13:39:47.586Z,66.70
2018-12-26T13:42:35.688Z,73.43
2018-12-26T13:45:23.820Z,62.60
2018-12-26T13:48:12.054Z,75.40
2018-12-26T13:50:52.690Z,65.80
2018-12-26T13:53:33.347Z,61.73
2018-12-26T13:56:14.660Z,76.37
2018-12-26T13:58:55.522Z,69.33
2018-12-26T14:04:19.426Z,76.10
2018-12-26T14:07:00.340Z,73.50
2018-12-26T14:09:41.198Z,69.60
2018-12-26T14:12:22.564Z,64.87
2018-12-26T14:15:03.939Z,61.43
2018-12-26T14:17:44.299Z,55.07
2018-12-26T14:20:24.798Z,62.80
2018-12-26T14:25:47.684Z,64.17
2018-12-26T14:28:28.435Z,61.50
2018-12-26T14:31:08.957Z,61.30
2018-12-26T14:36:31.667Z,58.30
2018-12-26T14:39:12.800Z,53.23
2018-12-26T14:41:53.259Z,55.33
2018-12-26T14:44:34.482Z,52.30
2018-12-26T14:47:15.631Z,46.63
2018-12-26T14:49:56.239Z,61.07
2018-12-26T14:52:37.525Z,43.73
2018-12-26T14:55:18.335Z,72.73
2018-12-26T14:57:58.891Z,42.40
2018-12-26T15:00:39.745Z,46.23
2018-12-26T15:03:20.211Z,40.80
2018-12-26T15:06:01.133Z,40.43
2018-12-26T15:08:42.407Z,39.53
2018-12-26T15:11:24.043Z,42.20
2018-12-26T15:14:05.176Z,52.03
2018-12-26T15:16:45.663Z,36.43
2018-12-26T15:19:26.517Z,42.23
2018-12-26T15:22:07.921Z,36.40
2018-12-26T15:24:48.552Z,35.00
2018-12-26T15:27:29.073Z,37.03
2018-12-26T15:30:10.223Z,34.63
2018-12-26T15:32:51.159Z,36.00
2018-12-26T15:35:32.514Z,40.13
2018-12-26T15:38:01.391Z,33.43
2018-12-26T15:40:30.363Z,36.17
2018-12-26T15:43:00.327Z,36.83
2018-12-26T15:45:48.440Z,35.27
2018-12-26T15:48:36.536Z,37.67
2018-12-26T15:51:24.723Z,44.87
2018-12-26T15:54:12.793Z,38.30
2018-12-26T15:57:00.974Z,44.27
2018-12-26T15:59:49.115Z,45.20
2018-12-26T16:02:37.287Z,49.30
2018-12-26T16:05:25.355Z,46.40
2018-12-26T16:08:13.569Z,47.97
2018-12-26T16:11:01.669Z,52.10
2018-12-26T16:13:49.959Z,42.13
2018-12-26T16:16:38.031Z,47.87
2018-12-26T16:19:26.193Z,54.50
2018-12-26T16:22:14.255Z,48.80
2018-12-26T16:25:03.244Z,57.70
2018-12-26T16:27:51.346Z,60.30
2018-12-26T16:30:20.421Z,62.43
2018-12-26T16:33:08.514Z,64.03
2018-12-26T16:38:50.485Z,54.43
2018-12-26T16:41:38.568Z,57.60
2018-12-26T16:44:26.602Z,54.03
2018-12-26T16:47:14.673Z,63.80
2018-12-26T16:50:02.830Z,56.73
2018-12-26T16:52:43.753Z,59.50
2018-12-26T16:55:25.152Z,55.73
2018-12-26T16:58:06.027Z,54.33
2018-12-26T17:00:54.848Z,54.43
2018-12-26T17:03:28.832Z,58.77
2018-12-26T17:06:09.370Z,59.63
2018-12-26T17:08:49.966Z,63.47
2018-12-26T17:11:30.992Z,51.13
2018-12-26T17:14:11.579Z,57.97
2018-12-26T17:16:52.148Z,59.33
2018-12-26T17:19:33.472Z,66.47
2018-12-26T17:22:14.126Z,65.10
2018-12-26T17:24:54.557Z,65.40
2018-12-26T17:27:35.724Z,67.07
2018-12-26T17:30:16.506Z,66.70
2018-12-26T17:33:00.766Z,62.37
2018-12-26T17:35:40.161Z,58.73
2018-12-26T17:38:21.403Z,58.63
2018-12-26T17:41:02.395Z,58.33
2018-12-26T17:43:43.159Z,63.10
2018-12-26T17:46:23.670Z,66.57
2018-12-26T17:49:04.387Z,56.97
2018-12-26T17:51:44.830Z,60.60
2018-12-26T17:54:25.586Z,57.00
2018-12-26T17:57:06.300Z,63.90
2018-12-26T17:59:47.488Z,62.80
2018-12-26T18:02:28.265Z,65.50
2018-12-26T18:05:08.770Z,74.17
2018-12-26T18:07:49.532Z,83.70
2018-12-26T18:10:30.274Z,85.30
2018-12-26T18:13:10.844Z,93.30
2018-12-26T18:15:51.772Z,94.87
2018-12-26T18:18:32.558Z,119.43
2018-12-26T18:21:13.236Z,108.97
2018-12-26T18:23:54.080Z,103.77
2018-12-26T18:26:34.485Z,113.07
2018-12-26T18:29:15.504Z,100.70
2018-12-26T18:31:56.136Z,113.97
2018-12-26T18:34:37.134Z,106.53
2018-12-26T18:37:17.752Z,109.67
2018-12-26T18:39:58.393Z,111.53
2018-12-26T18:42:39.644Z,146.50
2018-12-26T18:45:20.657Z,160.97
2018-12-26T18:48:01.184Z,186.87
2018-12-26T18:50:41.692Z,146.57
2018-12-26T18:53:22.529Z,152.80
2018-12-26T18:56:02.998Z,167.17
2018-12-26T18:58:43.782Z,229.90
2018-12-26T19:01:30.582Z,227.93
2018-12-26T19:04:07.286Z,219.03
2018-12-26T19:06:48.139Z,286.37
2018-12-26T19:09:29.388Z,287.63
2018-12-26T19:12:10.055Z,241.97
2018-12-26T19:14:50.678Z,358.50
2018-12-26T19:17:31.701Z,232.57
2018-12-26T19:20:13.013Z,298.63
2018-12-26T19:22:53.919Z,267.50
2018-12-26T19:25:34.497Z,255.27
2018-12-26T19:28:15.247Z,282.13
2018-12-26T19:30:55.543Z,303.83
2018-12-26T19:33:36.490Z,305.17
2018-12-26T19:38:59.529Z,315.87
2018-12-26T19:41:40.117Z,327.80
2018-12-26T19:44:09.015Z,306.83
2018-12-26T19:46:37.852Z,226.83
2018-12-26T19:49:06.849Z,302.57
2018-12-26T19:51:35.775Z,238.90
2018-12-26T19:54:04.785Z,245.37
2018-12-26T19:56:33.829Z,323.50
2018-12-26T19:59:03.061Z,247.40
2018-12-26T20:01:33.194Z,285.90
2018-12-26T20:04:02.372Z,258.13
2018-12-26T20:06:32.532Z,254.10
2018-12-26T20:09:01.495Z,270.23
2018-12-26T20:15:30.933Z,276.90
2018-12-26T20:18:00.287Z,260.83
2018-12-26T20:20:29.276Z,287.67
2018-12-26T20:22:58.553Z,251.03
2018-12-26T20:25:27.629Z,257.10
2018-12-26T20:27:56.763Z,251.27
2018-12-26T20:30:25.895Z,271.30
2018-12-26T20:32:54.998Z,251.57
2018-12-26T20:35:24.150Z,285.03
2018-12-26T20:37:53.165Z,271.83
2018-12-26T20:40:26.024Z,249.33
2018-12-26T20:42:55.121Z,274.67
2018-12-26T20:45:24.200Z,252.33
2018-12-26T20:47:53.273Z,233.60
2018-12-26T20:50:22.265Z,227.53
2018-12-26T20:52:51.311Z,250.53
2018-12-26T20:55:26.600Z,295.30
2018-12-26T20:57:55.624Z,286.70
2018-12-26T21:00:24.688Z,269.67
2018-12-26T21:02:53.729Z,279.97
2018-12-26T21:05:22.838Z,268.50
2018-12-26T21:07:51.818Z,294.87
2018-12-26T21:10:20.977Z,266.23
2018-12-26T21:12:52.679Z,274.73
2018-12-26T21:15:22.885Z,231.23
2018-12-26T21:17:51.923Z,256.67
2018-12-26T21:20:21.394Z,262.80
2018-12-26T21:22:50.325Z,233.30
2018-12-26T21:25:19.289Z,255.20
2018-12-26T21:27:48.256Z,263.60
2018-12-26T21:30:17.765Z,251.50
2018-12-26T21:32:46.907Z,278.67
2018-12-26T21:35:15.884Z,274.17
2018-12-26T21:37:45.032Z,258.53
2018-12-26T21:40:14.142Z,295.43
2018-12-26T21:42:43.175Z,300.87
2018-12-26T21:45:12.722Z,274.73
2018-12-26T21:47:41.835Z,246.13
2018-12-26T21:50:12.250Z,258.07
2018-12-26T21:52:41.376Z,244.83
2018-12-26T21:55:10.411Z,247.37
2018-12-26T21:57:39.391Z,246.47
2018-12-26T22:00:09.977Z,266.53
2018-12-26T22:02:39.007Z,261.77
2018-12-26T22:05:07.970Z,273.30
2018-12-26T22:07:37.102Z,266.10
2018-12-26T22:10:06.378Z,248.30
2018-12-26T22:13:51.517Z,287.37
2018-12-26T22:16:55.834Z,238.83
2018-12-26T22:19:24.885Z,239.83
2018-12-26T22:21:53.948Z,265.33
2018-12-26T22:24:23.076Z,240.37
2018-12-26T22:26:52.186Z,265.87
2018-12-26T22:29:21.278Z,242.23
2018-12-26T22:31:50.410Z,250.80
2018-12-26T22:34:19.570Z,231.87
2018-12-26T22:36:48.638Z,224.63
2018-12-26T22:39:17.628Z,194.03
2018-12-26T22:41:47.390Z,219.57
2018-12-26T22:44:16.867Z,184.60
2018-12-26T22:46:45.958Z,189.33
2018-12-26T22:49:15.626Z,191.23
2018-12-26T22:51:44.630Z,156.70
2018-12-26T22:54:13.604Z,155.77
2018-12-26T22:56:42.594Z,156.53
2018-12-26T22:59:11.577Z,166.53
2018-12-26T23:01:44.064Z,166.57
2018-12-26T23:04:13.085Z,161.10
2018-12-26T23:06:42.185Z,146.00
2018-12-26T23:09:32.422Z,150.80
2018-12-26T23:12:01.430Z,160.70
2018-12-26T23:14:30.557Z,148.10
2018-12-26T23:16:59.649Z,156.30
2018-12-26T23:19:28.817Z,140.60
2018-12-26T23:21:58.043Z,151.57
2018-12-26T23:24:27.929Z,151.50
2018-12-26T23:26:57.089Z,143.70
2018-12-26T23:29:26.427Z,135.53
2018-12-26T23:31:55.689Z,146.57
2018-12-26T23:34:24.888Z,132.57
2018-12-26T23:36:54.075Z,136.37
2018-12-26T23:39:23.024Z,133.43
2018-12-26T23:41:53.651Z,129.47
2018-12-26T23:44:22.869Z,113.47
2018-12-26T23:46:52.049Z,124.20
2018-12-26T23:49:20.958Z,120.50
2018-12-26T23:51:50.537Z,123.17
2018-12-26T23:54:19.637Z,123.50
2018-12-26T23:56:48.681Z,122.00
2018-12-26T23:59:17.954Z,126.90
